createdAt,value
2022-08-01T00:01:01.964Z,95199.59
2022-08-01T00:03:29.860Z,95188.66
2022-08-01T00:05:57.789Z,95184.75
2022-08-01T00:08:25.704Z,95187.09
2022-08-01T00:10:53.634Z,95203.53
2022-08-01T00:13:21.489Z,95197.22
2022-08-01T00:15:53.832Z,95197.22
2022-08-01T00:18:23.809Z,95197.97
2022-08-01T00:20:51.735Z,95201.88
2022-08-01T00:23:19.637Z,95204.25
2022-08-01T00:25:47.528Z,95162.78
2022-08-01T00:28:15.535Z,95208.16
2022-08-01T00:30:43.694Z,95179.94
2022-08-01T00:33:11.682Z,95162.00
2022-08-01T00:35:41.113Z,95206.19
2022-08-01T00:38:09.016Z,95201.47
2022-08-01T00:40:36.902Z,95204.22
2022-08-01T00:43:04.991Z,95202.66
2022-08-01T00:45:32.879Z,95205.41
2022-08-01T00:48:00.767Z,95204.25
2022-08-01T00:50:29.088Z,95203.06
2022-08-01T00:53:00.820Z,95086.88
2022-08-01T00:55:30.019Z,95149.44
2022-08-01T00:58:03.407Z,95188.97
2022-08-01T01:00:53.258Z,95185.47
2022-08-01T01:03:29.371Z,95182.31
2022-08-01T01:06:16.901Z,94984.16
2022-08-01T01:08:56.383Z,95169.06
2022-08-01T01:11:30.957Z,95164.34
2022-08-01T01:14:06.527Z,95170.59
2022-08-01T01:16:36.035Z,95173.69
2022-08-01T01:19:06.478Z,95173.69
2022-08-01T01:21:49.858Z,95170.97
2022-08-01T01:24:30.185Z,95138.88
2022-08-01T01:27:08.604Z,95137.72
2022-08-01T01:29:59.593Z,95144.00
2022-08-01T01:32:35.435Z,95154.19
2022-08-01T01:35:08.459Z,95162.75
2022-08-01T01:37:39.895Z,95144.78
2022-08-01T01:40:11.798Z,95151.06
2022-08-01T01:42:42.020Z,95141.66
2022-08-01T01:45:12.407Z,95148.72
2022-08-01T01:47:42.082Z,95093.25
2022-08-01T01:50:13.460Z,95144.06
2022-08-01T01:52:45.431Z,95144.81
2022-08-01T01:55:15.565Z,95142.88
2022-08-01T01:57:44.882Z,95137.03
2022-08-01T02:00:16.362Z,95138.97
2022-08-01T02:02:45.470Z,95142.91
2022-08-01T02:05:15.375Z,95061.25
2022-08-01T02:07:44.776Z,95115.16
2022-08-01T02:10:15.054Z,95137.84
2022-08-01T02:12:46.631Z,95135.88
2022-08-01T02:15:17.785Z,95130.00
2022-08-01T02:17:49.631Z,95114.38
2022-08-01T02:20:18.550Z,95128.81
2022-08-01T02:22:52.240Z,95120.94
2022-08-01T02:25:24.735Z,95134.66
2022-08-01T02:27:59.033Z,95135.38
2022-08-01T02:30:32.212Z,95133.41
2022-08-01T02:33:03.998Z,95136.56
2022-08-01T02:36:31.073Z,95133.06
2022-08-01T02:38:29.454Z,95138.53
2022-08-01T02:41:02.009Z,95139.69
2022-08-01T02:43:32.294Z,95130.25
2022-08-01T02:46:04.721Z,94991.44
2022-08-01T02:48:37.573Z,95137.69
2022-08-01T02:51:08.368Z,95131.00
2022-08-01T02:53:44.474Z,95075.81
2022-08-01T02:56:15.616Z,95124.75
2022-08-01T02:58:45.837Z,95133.69
2022-08-01T03:01:17.205Z,95115.63
2022-08-01T03:03:48.486Z,95145.22
2022-08-01T03:06:17.799Z,95136.59
2022-08-01T03:08:47.779Z,95138.69
2022-08-01T03:11:16.209Z,95138.28
2022-08-01T03:13:46.753Z,95122.16
2022-08-01T03:16:18.220Z,95113.84
2022-08-01T03:18:47.356Z,95115.28
2022-08-01T03:21:16.361Z,95123.03
2022-08-01T03:23:48.217Z,95020.56
2022-08-01T03:26:17.668Z,95137.69
2022-08-01T03:28:48.292Z,95143.91
2022-08-01T03:31:18.452Z,95139.28
2022-08-01T03:33:46.369Z,95138.53
2022-08-01T03:36:17.560Z,95139.19
2022-08-01T03:38:47.584Z,95137.47
2022-08-01T03:41:22.093Z,95129.94
2022-08-01T03:43:57.144Z,95133.91
2022-08-01T03:46:37.593Z,95155.56
2022-08-01T03:49:11.823Z,95149.47
2022-08-01T03:51:40.646Z,95152.19
2022-08-01T03:54:11.505Z,95158.38
2022-08-01T03:56:40.512Z,95157.44
2022-08-01T03:59:08.660Z,95157.44
2022-08-01T04:01:38.892Z,95156.41
2022-08-01T04:04:07.204Z,95094.66
2022-08-01T04:06:35.072Z,95153.69
2022-08-01T04:09:02.964Z,95149.38
2022-08-01T04:11:31.229Z,95150.22
2022-08-01T04:13:59.273Z,95157.34
2022-08-01T04:16:27.794Z,95155.47
2022-08-01T04:18:57.198Z,95155.47
2022-08-01T04:21:28.823Z,95155.84
2022-08-01T04:24:00.388Z,95146.50
2022-08-01T04:26:30.569Z,95157.16
2022-08-01T04:28:59.127Z,95146.59
2022-08-01T04:31:30.039Z,95118.00
2022-08-01T04:34:04.804Z,95156.47
2022-08-01T04:36:35.063Z,95143.84
2022-08-01T04:39:05.638Z,95162.69
2022-08-01T04:41:34.682Z,95139.28
2022-08-01T04:44:03.680Z,95152.22
2022-08-01T04:46:32.007Z,95144.81
2022-08-01T04:49:02.008Z,95085.06
2022-08-01T04:51:29.905Z,95151.13
2022-08-01T04:53:58.830Z,95153.09
2022-08-01T04:56:26.731Z,95163.34
2022-08-01T04:59:08.788Z,95157.72
2022-08-01T05:01:36.867Z,95145.41
2022-08-01T05:04:07.306Z,95145.66
2022-08-01T05:06:35.184Z,95138.31
2022-08-01T05:09:03.045Z,95139.44
2022-08-01T05:11:31.770Z,95136.09
2022-08-01T05:13:59.633Z,95134.56
2022-08-01T05:16:27.799Z,95138.84
2022-08-01T05:18:55.702Z,95108.03
2022-08-01T05:21:24.948Z,95128.03
2022-08-01T05:23:52.961Z,95129.53
2022-08-01T05:26:22.044Z,95135.03
2022-08-01T05:28:49.932Z,95135.94
2022-08-01T05:31:17.832Z,95125.75
2022-08-01T05:33:45.761Z,95130.31
2022-08-01T05:36:13.632Z,95131.97
2022-08-01T05:38:42.988Z,95132.75
2022-08-01T05:41:10.943Z,95125.91
2022-08-01T05:43:38.891Z,95136.31
2022-08-01T05:46:06.980Z,95137.72
2022-08-01T05:48:34.844Z,95130.25
2022-08-01T05:51:02.724Z,95116.66
2022-08-01T05:53:30.668Z,95136.97
2022-08-01T05:55:59.916Z,95136.09
2022-08-01T05:58:27.774Z,95146.47
2022-08-01T06:00:55.840Z,95142.66
2022-08-01T06:03:23.751Z,95142.22
2022-08-01T06:05:53.223Z,95134.84
2022-08-01T06:08:21.156Z,95141.38
2022-08-01T06:10:49.391Z,95143.41
2022-08-01T06:13:19.963Z,95139.38
2022-08-01T06:15:48.163Z,95138.13
2022-08-01T06:18:16.489Z,95139.56
2022-08-01T06:20:44.693Z,95133.53
2022-08-01T06:23:31.884Z,95065.09
2022-08-01T06:26:00.681Z,95090.66
2022-08-01T06:28:30.684Z,95141.91
2022-08-01T06:30:59.590Z,95140.63
2022-08-01T06:33:27.504Z,95145.56
2022-08-01T06:35:55.440Z,95134.00
2022-08-01T06:38:23.428Z,95137.25
2022-08-01T06:40:51.797Z,95133.31
2022-08-01T06:43:20.372Z,95106.09
2022-08-01T06:45:50.792Z,95105.56
2022-08-01T06:48:18.716Z,95122.22
2022-08-01T06:50:46.716Z,95125.28
2022-08-01T06:53:14.677Z,95117.22
2022-08-01T06:55:42.573Z,95113.00
2022-08-01T06:58:10.456Z,95107.69
2022-08-01T07:00:38.419Z,95046.69
2022-08-01T07:03:08.084Z,95048.94
2022-08-01T07:05:35.975Z,95071.75
2022-08-01T07:08:03.872Z,95110.22
2022-08-01T07:10:31.898Z,95100.91
2022-08-01T07:13:00.181Z,95097.94
2022-08-01T07:15:28.360Z,95108.22
2022-08-01T07:17:57.954Z,95114.31
2022-08-01T07:20:27.212Z,95094.06
2022-08-01T07:22:56.520Z,95110.69
2022-08-01T07:25:24.688Z,95101.03
2022-08-01T07:27:52.577Z,95107.19
2022-08-01T07:30:20.461Z,95114.16
2022-08-01T07:32:48.429Z,95117.03
2022-08-01T07:35:16.334Z,95108.47
2022-08-01T07:37:48.449Z,95099.28
2022-08-01T07:40:18.749Z,95106.00
2022-08-01T07:42:46.882Z,95117.09
2022-08-01T07:45:15.432Z,95104.81
2022-08-01T07:47:44.058Z,95129.06
2022-08-01T07:50:13.617Z,95115.00
2022-08-01T07:52:41.895Z,95079.56
2022-08-01T07:55:12.284Z,95101.03
2022-08-01T07:57:44.708Z,95069.34
2022-08-01T08:00:14.018Z,95098.47
2022-08-01T08:02:42.043Z,95067.31
2022-08-01T08:05:10.463Z,95109.41
2022-08-01T08:07:40.439Z,95111.31
2022-08-01T08:10:09.169Z,95110.34
2022-08-01T08:12:38.612Z,95103.13
2022-08-01T08:15:07.888Z,95070.75
2022-08-01T08:17:36.814Z,95097.25
2022-08-01T08:20:09.227Z,95109.38
2022-08-01T08:22:38.680Z,95105.69
2022-08-01T08:25:08.400Z,95107.56
2022-08-01T08:27:37.337Z,94993.69
2022-08-01T08:30:09.427Z,95046.91
2022-08-01T08:32:37.779Z,95110.81
2022-08-01T08:35:07.100Z,95008.00
2022-08-01T08:37:38.007Z,95097.75
2022-08-01T08:40:12.241Z,95107.16
2022-08-01T08:42:41.913Z,95104.31
2022-08-01T08:45:12.525Z,95099.94
2022-08-01T08:47:41.654Z,95105.75
2022-08-01T08:50:09.999Z,95099.16
2022-08-01T08:52:40.681Z,95089.97
2022-08-01T08:55:10.789Z,95092.22
2022-08-01T08:57:42.331Z,95084.72
2022-08-01T09:00:13.681Z,95088.88
2022-08-01T09:02:44.444Z,95095.59
2022-08-01T09:05:18.929Z,95078.34
2022-08-01T09:07:47.496Z,95089.22
2022-08-01T09:10:15.400Z,95012.63
2022-08-01T09:13:07.680Z,95079.16
2022-08-01T09:15:47.760Z,95081.06
2022-08-01T09:18:30.773Z,95079.41
2022-08-01T09:21:19.177Z,95067.59
2022-08-01T09:23:53.333Z,95084.94
2022-08-01T09:26:23.406Z,95081.97
2022-08-01T09:28:52.447Z,95083.38
2022-08-01T09:31:21.779Z,95078.16
2022-08-01T09:33:52.018Z,95074.72
2022-08-01T09:36:20.672Z,95066.75
2022-08-01T09:38:50.940Z,95006.78
2022-08-01T09:41:19.757Z,95082.16
2022-08-01T09:43:52.216Z,95074.81
2022-08-01T09:46:23.641Z,95081.09
2022-08-01T09:49:01.390Z,95069.13
2022-08-01T09:52:00.068Z,95079.81
2022-08-01T09:54:30.568Z,95087.75
2022-08-01T09:57:10.234Z,95084.94
2022-08-01T09:59:57.216Z,95071.81
2022-08-01T10:02:34.111Z,95046.81
2022-08-01T10:05:08.337Z,95070.53
2022-08-01T10:07:43.862Z,95080.00
2022-08-01T10:10:14.807Z,95078.91
2022-08-01T10:12:45.292Z,95058.38
2022-08-01T10:15:17.984Z,95078.31
2022-08-01T10:17:54.705Z,95068.09
2022-08-01T10:20:29.964Z,95067.59
2022-08-01T10:23:02.191Z,95086.94
2022-08-01T10:25:43.107Z,95066.09
2022-08-01T10:28:23.786Z,95049.81
2022-08-01T10:30:53.368Z,95052.31
2022-08-01T10:33:52.699Z,95055.88
2022-08-01T10:36:13.633Z,95051.56
2022-08-01T10:38:42.356Z,95042.09
2022-08-01T10:41:12.258Z,95046.28
2022-08-01T10:43:41.401Z,95043.69
2022-08-01T10:46:13.884Z,94990.63
2022-08-01T10:48:49.396Z,95033.75
2022-08-01T10:51:22.469Z,95046.75
2022-08-01T10:54:12.407Z,94924.34
2022-08-01T10:56:43.510Z,95005.59
2022-08-01T10:59:12.018Z,95030.44
2022-08-01T11:01:45.084Z,94973.56
2022-08-01T11:04:17.657Z,95048.84
2022-08-01T11:07:05.882Z,95044.59
2022-08-01T11:09:49.515Z,95044.06
2022-08-01T11:12:23.577Z,95039.00
2022-08-01T11:15:35.655Z,95038.09
2022-08-01T11:18:05.740Z,95030.97
2022-08-01T11:20:42.044Z,95041.03
2022-08-01T11:23:20.356Z,95033.75
2022-08-01T11:26:13.943Z,95036.56
2022-08-01T11:29:04.750Z,95038.47
2022-08-01T11:31:37.180Z,95008.34
2022-08-01T11:34:06.058Z,95031.19
2022-08-01T11:39:23.373Z,95022.44
2022-08-01T11:41:53.687Z,94900.72
2022-08-01T11:44:34.516Z,94933.03
2022-08-01T11:47:09.761Z,94962.63
2022-08-01T11:50:00.632Z,95002.91
2022-08-01T11:52:34.557Z,95002.56
2022-08-01T11:55:10.110Z,94987.06
2022-08-01T11:57:39.611Z,95019.41
2022-08-01T12:00:15.388Z,94992.19
2022-08-01T12:02:46.216Z,95006.28
2022-08-01T12:05:17.564Z,95003.72
2022-08-01T12:07:51.233Z,95001.16
2022-08-01T12:10:20.611Z,95011.78
2022-08-01T12:12:50.468Z,95012.94
2022-08-01T12:15:19.933Z,95004.53
2022-08-01T12:17:57.935Z,95030.34
2022-08-01T12:20:31.403Z,95019.69
2022-08-01T12:23:02.621Z,94994.34
2022-08-01T12:25:31.198Z,95020.47
2022-08-01T12:28:03.934Z,94918.56
2022-08-01T12:30:36.218Z,95009.00
2022-08-01T12:33:06.083Z,95007.00
2022-08-01T12:35:34.810Z,95008.72
2022-08-01T12:38:06.448Z,95005.00
2022-08-01T12:40:36.138Z,95006.28
2022-08-01T12:43:06.136Z,95009.38
2022-08-01T12:45:37.509Z,94999.91
2022-08-01T12:48:09.909Z,95006.78
2022-08-01T12:50:40.352Z,94947.44
2022-08-01T12:53:11.041Z,94961.09
2022-08-01T12:55:59.504Z,94990.84
2022-08-01T12:58:33.619Z,94997.56
2022-08-01T13:01:06.549Z,94970.72
2022-08-01T13:03:34.767Z,94991.06
2022-08-01T13:06:02.990Z,94948.91
2022-08-01T13:08:34.621Z,94985.03
2022-08-01T13:11:05.792Z,94998.31
2022-08-01T13:13:40.675Z,94915.50
2022-08-01T13:16:15.470Z,94986.81
2022-08-01T13:18:51.527Z,94978.19
2022-08-01T13:21:21.208Z,94957.97
2022-08-01T13:24:06.268Z,94981.41
2022-08-01T13:26:41.790Z,94961.53
2022-08-01T13:29:11.149Z,94949.44
2022-08-01T13:31:40.956Z,94978.56
2022-08-01T13:34:09.597Z,94914.59
2022-08-01T13:36:37.982Z,94954.19
2022-08-01T13:39:25.510Z,94972.00
2022-08-01T13:41:54.199Z,94966.31
2022-08-01T13:44:22.346Z,94954.75
2022-08-01T13:46:51.248Z,94973.31
2022-08-01T13:49:20.176Z,94970.31
2022-08-01T13:51:50.949Z,94960.03
2022-08-01T13:54:20.389Z,94957.66
2022-08-01T13:56:48.290Z,94900.13
2022-08-01T13:59:16.141Z,94951.03
2022-08-01T14:01:44.318Z,94952.19
2022-08-01T14:04:12.275Z,94957.91
2022-08-01T14:06:40.221Z,94963.94
2022-08-01T14:09:18.191Z,94932.22
2022-08-01T14:11:54.050Z,94965.91
2022-08-01T14:14:22.011Z,94951.31
2022-08-01T14:16:50.177Z,94958.47
2022-08-01T14:19:19.299Z,94931.72
2022-08-01T14:21:53.427Z,94953.78
2022-08-01T14:24:21.320Z,94941.84
2022-08-01T14:26:49.189Z,94965.16
2022-08-01T14:29:18.458Z,94956.06
2022-08-01T14:31:46.659Z,94957.66
2022-08-01T14:34:15.029Z,94960.06
2022-08-01T14:36:43.741Z,94957.97
2022-08-01T14:39:14.935Z,94955.19
2022-08-01T14:41:43.097Z,94960.44
2022-08-01T14:44:13.439Z,94956.88
2022-08-01T14:46:58.130Z,94926.44
2022-08-01T14:49:26.790Z,94965.41
2022-08-01T14:51:54.733Z,94956.97
2022-08-01T14:54:26.767Z,94957.16
2022-08-01T14:56:57.168Z,94962.75
2022-08-01T14:59:25.293Z,94964.38
2022-08-01T15:01:54.571Z,94958.38
2022-08-01T15:04:22.584Z,94968.63
2022-08-01T15:06:50.433Z,94971.34
2022-08-01T15:09:18.338Z,94966.28
2022-08-01T15:11:47.919Z,94966.31
2022-08-01T15:14:33.044Z,94975.44
2022-08-01T15:17:02.474Z,94972.56
2022-08-01T15:19:30.383Z,94965.81
2022-08-01T15:21:58.295Z,94969.91
2022-08-01T15:24:29.433Z,94967.81
2022-08-01T15:26:57.348Z,94958.81
2022-08-01T15:29:25.260Z,94867.66
2022-08-01T15:31:53.165Z,94940.91
2022-08-01T15:34:22.417Z,94974.78
2022-08-01T15:36:50.340Z,94976.00
2022-08-01T15:39:18.705Z,94929.19
2022-08-01T15:41:46.677Z,94916.69
2022-08-01T15:44:14.781Z,94900.09
2022-08-01T15:46:42.857Z,94844.47
2022-08-01T15:49:11.778Z,94974.78
2022-08-01T15:51:41.228Z,94977.47
2022-08-01T15:54:14.490Z,94969.25
2022-08-01T15:56:42.797Z,94970.13
2022-08-01T15:59:10.740Z,94964.28
2022-08-01T16:01:38.840Z,94969.25
2022-08-01T16:04:07.554Z,94834.41
2022-08-01T16:06:36.667Z,94965.50
2022-08-01T16:09:06.569Z,94967.06
2022-08-01T16:11:37.445Z,94920.81
2022-08-01T16:14:07.887Z,94979.94
2022-08-01T16:16:35.903Z,94975.63
2022-08-01T16:19:05.237Z,94976.94
2022-08-01T16:21:33.363Z,94951.16
2022-08-01T16:24:01.267Z,94972.09
2022-08-01T16:26:30.548Z,94978.41
2022-08-01T16:28:58.441Z,94980.06
2022-08-01T16:31:37.561Z,94973.94
2022-08-01T16:34:15.221Z,94981.47
2022-08-01T16:36:43.407Z,94945.38
2022-08-01T16:39:11.483Z,94976.19
2022-08-01T16:41:40.779Z,94984.94
2022-08-01T16:44:08.694Z,94975.41
2022-08-01T16:46:36.620Z,94983.28
2022-08-01T16:49:06.628Z,94989.91
2022-08-01T16:51:40.736Z,94978.50
2022-08-01T16:54:25.323Z,94979.69
2022-08-01T16:57:08.080Z,94976.81
2022-08-01T16:59:41.727Z,94974.91
2022-08-01T17:02:11.146Z,94993.97
2022-08-01T17:04:39.148Z,94987.44
2022-08-01T17:07:07.334Z,94971.69
2022-08-01T17:09:38.656Z,94990.66
2022-08-01T17:12:14.376Z,95000.59
2022-08-01T17:14:50.503Z,94994.16
2022-08-01T17:17:18.421Z,94998.81
2022-08-01T17:19:46.520Z,95001.59
2022-08-01T17:22:14.440Z,95004.44
2022-08-01T17:24:42.352Z,94996.59
2022-08-01T17:27:13.024Z,95004.09
2022-08-01T17:29:44.034Z,94857.50
2022-08-01T17:32:13.236Z,95005.75
2022-08-01T17:34:41.316Z,95003.16
2022-08-01T17:37:09.828Z,95010.69
2022-08-01T17:39:38.771Z,95019.06
2022-08-01T17:42:08.287Z,95012.63
2022-08-01T17:44:36.279Z,95024.56
2022-08-01T17:47:07.553Z,95023.88
2022-08-01T17:52:26.174Z,95032.53
2022-08-01T17:54:58.112Z,95034.31
2022-08-01T17:57:26.504Z,94975.72
2022-08-01T17:59:54.443Z,95046.41
2022-08-01T18:02:23.708Z,95051.66
2022-08-01T18:04:52.919Z,95030.25
2022-08-01T18:08:01.934Z,95068.75
2022-08-01T18:10:11.527Z,95071.66
2022-08-01T18:12:40.133Z,95071.00
2022-08-01T18:15:08.880Z,95050.97
2022-08-01T18:17:38.283Z,95080.47
2022-08-01T18:20:07.479Z,95083.34
2022-08-01T18:22:35.384Z,95073.47
2022-08-01T18:25:08.787Z,95092.34
2022-08-01T18:28:23.491Z,95085.81
2022-08-01T18:30:25.295Z,95097.34
2022-08-01T18:32:55.955Z,95107.47
2022-08-01T18:35:25.650Z,95108.81
2022-08-01T18:38:12.555Z,95067.06
2022-08-01T18:40:41.665Z,95116.13
2022-08-01T18:43:09.550Z,95124.03
2022-08-01T18:45:42.270Z,95124.97
2022-08-01T18:48:12.429Z,95108.81
2022-08-01T18:50:40.634Z,95122.50
2022-08-01T18:53:08.622Z,95137.91
2022-08-01T18:55:36.561Z,95096.78
2022-08-01T18:58:04.639Z,95077.44
2022-08-01T19:00:32.781Z,95140.81
2022-08-01T19:03:00.685Z,95147.50
2022-08-01T19:05:31.794Z,95133.06
2022-08-01T19:08:05.913Z,95129.72
2022-08-01T19:10:35.092Z,95148.56
2022-08-01T19:13:03.147Z,95156.56
2022-08-01T19:15:31.401Z,95159.06
2022-08-01T19:17:59.323Z,95160.53
2022-08-01T19:20:27.631Z,95155.25
2022-08-01T19:22:57.368Z,95160.44
2022-08-01T19:25:25.417Z,95152.81
2022-08-01T19:27:55.666Z,95167.91
2022-08-01T19:30:23.806Z,95142.00
2022-08-01T19:32:52.049Z,95168.81
2022-08-01T19:35:20.518Z,95178.13
2022-08-01T19:37:52.500Z,95168.31
2022-08-01T19:40:26.372Z,95172.50
2022-08-01T19:42:56.189Z,95039.88
2022-08-01T19:45:24.659Z,95173.66
2022-08-01T19:47:56.828Z,95093.78
2022-08-01T19:50:26.325Z,95168.19
2022-08-01T19:52:55.458Z,95173.69
2022-08-01T19:55:25.025Z,95180.06
2022-08-01T19:58:17.378Z,95176.16
2022-08-01T20:00:43.768Z,95180.91
2022-08-01T20:03:16.093Z,95168.06
2022-08-01T20:05:45.039Z,95161.16
2022-08-01T20:08:13.604Z,95174.56
2022-08-01T20:10:43.022Z,95155.50
2022-08-01T20:13:12.009Z,95174.22
2022-08-01T20:15:40.183Z,95081.59
2022-08-01T20:18:08.125Z,95180.50
2022-08-01T20:20:37.901Z,95191.53
2022-08-01T20:23:18.387Z,95176.28
2022-08-01T20:25:53.251Z,95120.09
2022-08-01T20:28:27.138Z,95184.81
2022-08-01T20:31:01.095Z,95187.97
2022-08-01T20:33:32.100Z,95190.16
2022-08-01T20:36:02.213Z,95186.91
2022-08-01T20:38:31.702Z,95184.25
2022-08-01T20:41:04.271Z,95111.13
2022-08-01T20:43:32.413Z,95148.72
2022-08-01T20:46:00.678Z,95186.03
2022-08-01T20:48:29.604Z,95170.91
2022-08-01T20:51:16.560Z,95183.00
2022-08-01T20:53:49.012Z,95166.72
2022-08-01T20:56:26.894Z,95187.78
2022-08-01T20:59:04.407Z,95187.09
2022-08-01T21:01:39.993Z,95188.72
2022-08-01T21:04:19.327Z,95149.03
2022-08-01T21:06:54.102Z,95143.41
2022-08-01T21:09:25.047Z,95180.13
2022-08-01T21:12:03.253Z,95175.13
2022-08-01T21:14:47.392Z,95099.88
2022-08-01T21:17:19.690Z,95188.00
2022-08-01T21:19:55.575Z,95171.38
2022-08-01T21:22:34.091Z,95170.22
2022-08-01T21:25:07.017Z,95188.53
2022-08-01T21:27:37.440Z,95184.25
2022-08-01T21:30:08.385Z,95184.63
2022-08-01T21:32:37.558Z,95180.75
2022-08-01T21:35:15.985Z,95181.19
2022-08-01T21:37:52.126Z,95180.78
2022-08-01T21:40:21.981Z,95136.00
2022-08-01T21:42:53.134Z,95136.41
2022-08-01T21:45:23.160Z,95177.47
2022-08-01T21:47:52.141Z,95182.94
2022-08-01T21:50:20.162Z,95183.69
2022-08-01T21:52:50.809Z,95179.41
2022-08-01T21:55:35.112Z,95179.34
2022-08-01T21:58:17.078Z,95182.81
2022-08-01T22:00:51.008Z,95181.19
2022-08-01T22:03:24.769Z,95183.63
2022-08-01T22:05:55.073Z,95173.41
2022-08-01T22:08:29.818Z,95157.00
2022-08-01T22:11:04.296Z,95174.19
2022-08-01T22:13:34.608Z,95178.81
2022-08-01T22:16:04.215Z,95178.91
2022-08-01T22:18:34.027Z,95175.44
2022-08-01T22:21:03.421Z,95131.50
2022-08-01T22:23:35.752Z,95173.63
2022-08-01T22:26:08.326Z,95169.00
2022-08-01T22:28:39.064Z,95162.06
2022-08-01T22:31:07.845Z,95167.13
2022-08-01T22:33:37.216Z,95156.63
2022-08-01T22:36:06.392Z,95157.38
2022-08-01T22:38:35.256Z,95165.59
2022-08-01T22:41:05.829Z,95097.34
2022-08-01T22:43:46.784Z,95161.41
2022-08-01T22:46:26.233Z,95164.59
2022-08-01T22:49:00.661Z,95159.91
2022-08-01T22:51:35.680Z,95160.75
2022-08-01T22:54:06.391Z,95163.56
2022-08-01T22:56:39.152Z,95153.41
2022-08-01T22:59:14.820Z,95125.75
2022-08-01T23:01:47.895Z,95149.91
2022-08-01T23:04:28.794Z,95153.03
2022-08-01T23:07:05.416Z,95148.03
2022-08-01T23:09:48.187Z,95144.91
2022-08-01T23:12:25.320Z,95139.06
2022-08-01T23:14:56.632Z,95152.16
2022-08-01T23:17:28.150Z,95151.84
2022-08-01T23:19:58.458Z,95149.53
2022-08-01T23:22:31.370Z,95156.59
2022-08-01T23:25:05.057Z,95160.09
2022-08-01T23:27:51.689Z,95152.28
2022-08-01T23:30:25.988Z,95147.97
2022-08-01T23:32:53.905Z,95135.47
2022-08-01T23:35:22.000Z,95141.72
2022-08-01T23:37:51.194Z,95135.84
2022-08-01T23:40:19.608Z,95075.31
2022-08-01T23:42:47.640Z,95136.22
2022-08-01T23:45:15.700Z,95091.69
2022-08-01T23:47:44.941Z,95138.56
2022-08-01T23:50:12.851Z,95134.66
2022-08-01T23:52:48.242Z,95072.19
2022-08-01T23:55:17.871Z,95140.59
2022-08-01T23:57:45.815Z,95144.47
